sensor_id;sensor_type;location;lat;lon;timestamp;P1;durP1;ratioP1;P2;durP2;ratioP2
22284;SDS011;11311;52.192;20.900;2023-08-21T00:00:16;20.33;;;18.40;;
22284;SDS011;11311;52.192;20.900;2023-08-21T00:02:45;20.77;;;18.83;;
22284;SDS011;11311;52.192;20.900;2023-08-21T00:05:14;21.42;;;19.30;;
22284;SDS011;11311;52.192;20.900;2023-08-21T00:07:42;20.38;;;18.50;;
22284;SDS011;11311;52.192;20.900;2023-08-21T00:10:12;20.33;;;18.25;;
22284;SDS011;11311;52.192;20.900;2023-08-21T00:12:42;21.02;;;19.27;;
22284;SDS011;11311;52.192;20.900;2023-08-21T00:15:11;22.80;;;19.73;;
22284;SDS011;11311;52.192;20.900;2023-08-21T00:17:40;22.58;;;20.27;;
22284;SDS011;11311;52.192;20.900;2023-08-21T00:20:09;20.55;;;18.95;;
22284;SDS011;11311;52.192;20.900;2023-08-21T00:22:38;26.00;;;18.97;;
22284;SDS011;11311;52.192;20.900;2023-08-21T00:25:07;23.02;;;20.60;;
22284;SDS011;11311;52.192;20.900;2023-08-21T00:27:36;20.58;;;18.70;;
22284;SDS011;11311;52.192;20.900;2023-08-21T00:30:08;21.52;;;19.50;;
22284;SDS011;11311;52.192;20.900;2023-08-21T00:32:38;21.33;;;18.15;;
22284;SDS011;11311;52.192;20.900;2023-08-21T00:35:07;22.42;;;20.05;;
22284;SDS011;11311;52.192;20.900;2023-08-21T00:37:36;21.13;;;19.13;;
22284;SDS011;11311;52.192;20.900;2023-08-21T00:40:05;28.77;;;18.73;;
22284;SDS011;11311;52.192;20.900;2023-08-21T00:42:34;21.13;;;19.35;;
22284;SDS011;11311;52.192;20.900;2023-08-21T00:45:04;18.52;;;17.02;;
22284;SDS011;11311;52.192;20.900;2023-08-21T00:47:36;25.08;;;19.88;;
22284;SDS011;11311;52.192;20.900;2023-08-21T00:50:06;22.97;;;18.40;;
22284;SDS011;11311;52.192;20.900;2023-08-21T00:52:35;23.63;;;18.80;;
22284;SDS011;11311;52.192;20.900;2023-08-21T00:55:08;20.23;;;18.35;;
22284;SDS011;11311;52.192;20.900;2023-08-21T00:57:37;20.95;;;19.13;;
22284;SDS011;11311;52.192;20.900;2023-08-21T01:00:09;21.38;;;19.42;;
22284;SDS011;11311;52.192;20.900;2023-08-21T01:02:40;22.55;;;20.20;;
22284;SDS011;11311;52.192;20.900;2023-08-21T01:05:12;20.67;;;18.58;;
22284;SDS011;11311;52.192;20.900;2023-08-21T01:07:45;22.35;;;20.25;;
22284;SDS011;11311;52.192;20.900;2023-08-21T01:10:22;21.83;;;19.83;;
22284;SDS011;11311;52.192;20.900;2023-08-21T01:13:01;21.77;;;19.90;;
22284;SDS011;11311;52.192;20.900;2023-08-21T01:15:36;20.88;;;19.13;;
22284;SDS011;11311;52.192;20.900;2023-08-21T01:18:07;21.13;;;19.13;;
22284;SDS011;11311;52.192;20.900;2023-08-21T01:20:37;23.05;;;20.85;;
22284;SDS011;11311;52.192;20.900;2023-08-21T01:23:09;23.65;;;20.27;;
22284;SDS011;11311;52.192;20.900;2023-08-21T01:25:39;22.02;;;19.80;;
22284;SDS011;11311;52.192;20.900;2023-08-21T01:28:07;23.02;;;20.70;;
22284;SDS011;11311;52.192;20.900;2023-08-21T01:30:36;22.23;;;20.30;;
22284;SDS011;11311;52.192;20.900;2023-08-21T01:33:06;24.83;;;20.90;;
22284;SDS011;11311;52.192;20.900;2023-08-21T01:35:39;23.60;;;21.38;;
22284;SDS011;11311;52.192;20.900;2023-08-21T01:38:08;22.83;;;20.75;;
22284;SDS011;11311;52.192;20.900;2023-08-21T01:40:39;24.10;;;21.95;;
22284;SDS011;11311;52.192;20.900;2023-08-21T01:43:08;23.80;;;21.67;;
22284;SDS011;11311;52.192;20.900;2023-08-21T01:45:37;23.50;;;21.35;;
22284;SDS011;11311;52.192;20.900;2023-08-21T01:48:06;21.85;;;19.83;;
22284;SDS011;11311;52.192;20.900;2023-08-21T01:50:35;25.20;;;21.13;;
22284;SDS011;11311;52.192;20.900;2023-08-21T01:53:04;23.23;;;21.05;;
22284;SDS011;11311;52.192;20.900;2023-08-21T01:55:33;23.52;;;21.38;;
22284;SDS011;11311;52.192;20.900;2023-08-21T01:58:03;24.48;;;22.10;;
22284;SDS011;11311;52.192;20.900;2023-08-21T02:00:32;23.52;;;21.60;;
22284;SDS011;11311;52.192;20.900;2023-08-21T02:03:02;25.50;;;21.77;;
22284;SDS011;11311;52.192;20.900;2023-08-21T02:05:36;23.63;;;21.45;;
22284;SDS011;11311;52.192;20.900;2023-08-21T02:08:06;25.17;;;22.92;;
22284;SDS011;11311;52.192;20.900;2023-08-21T02:10:35;26.27;;;23.83;;
22284;SDS011;11311;52.192;20.900;2023-08-21T02:13:05;23.95;;;21.63;;
22284;SDS011;11311;52.192;20.900;2023-08-21T02:15:35;24.75;;;22.55;;
22284;SDS011;11311;52.192;20.900;2023-08-21T02:18:04;24.98;;;22.40;;
22284;SDS011;11311;52.192;20.900;2023-08-21T02:20:33;22.55;;;20.40;;
22284;SDS011;11311;52.192;20.900;2023-08-21T02:23:02;24.48;;;21.95;;
22284;SDS011;11311;52.192;20.900;2023-08-21T02:25:31;27.60;;;22.88;;
22284;SDS011;11311;52.192;20.900;2023-08-21T02:28:00;23.80;;;21.63;;
22284;SDS011;11311;52.192;20.900;2023-08-21T02:30:33;23.83;;;21.45;;
22284;SDS011;11311;52.192;20.900;2023-08-21T02:33:02;25.25;;;22.98;;
22284;SDS011;11311;52.192;20.900;2023-08-21T02:35:32;25.00;;;22.40;;
22284;SDS011;11311;52.192;20.900;2023-08-21T02:38:01;27.05;;;24.13;;
22284;SDS011;11311;52.192;20.900;2023-08-21T02:40:29;27.23;;;24.63;;
22284;SDS011;11311;52.192;20.900;2023-08-21T02:42:58;26.60;;;24.05;;
22284;SDS011;11311;52.192;20.900;2023-08-21T02:45:27;25.60;;;23.17;;
22284;SDS011;11311;52.192;20.900;2023-08-21T02:47:58;25.27;;;22.98;;
22284;SDS011;11311;52.192;20.900;2023-08-21T02:50:28;24.75;;;22.38;;
22284;SDS011;11311;52.192;20.900;2023-08-21T02:52:57;25.23;;;22.42;;
22284;SDS011;11311;52.192;20.900;2023-08-21T02:57:56;27.38;;;24.52;;
22284;SDS011;11311;52.192;20.900;2023-08-21T03:00:25;25.52;;;23.02;;
22284;SDS011;11311;52.192;20.900;2023-08-21T03:02:54;26.52;;;24.02;;
22284;SDS011;11311;52.192;20.900;2023-08-21T03:05:24;25.92;;;23.33;;
22284;SDS011;11311;52.192;20.900;2023-08-21T03:07:53;26.13;;;23.67;;
22284;SDS011;11311;52.192;20.900;2023-08-21T03:10:21;26.45;;;23.55;;
22284;SDS011;11311;52.192;20.900;2023-08-21T03:12:51;25.60;;;23.25;;
22284;SDS011;11311;52.192;20.900;2023-08-21T03:15:20;27.02;;;24.63;;
22284;SDS011;11311;52.192;20.900;2023-08-21T03:17:49;27.45;;;25.00;;
22284;SDS011;11311;52.192;20.900;2023-08-21T03:20:18;26.45;;;23.90;;
22284;SDS011;11311;52.192;20.900;2023-08-21T03:22:48;28.33;;;25.58;;
22284;SDS011;11311;52.192;20.900;2023-08-21T03:25:17;27.85;;;24.98;;
22284;SDS011;11311;52.192;20.900;2023-08-21T03:27:47;27.90;;;25.40;;
22284;SDS011;11311;52.192;20.900;2023-08-21T03:30:17;26.87;;;24.50;;
22284;SDS011;11311;52.192;20.900;2023-08-21T03:32:46;28.50;;;25.50;;
22284;SDS011;11311;52.192;20.900;2023-08-21T03:35:15;27.33;;;24.50;;
22284;SDS011;11311;52.192;20.900;2023-08-21T03:37:45;31.40;;;26.45;;
22284;SDS011;11311;52.192;20.900;2023-08-21T03:40:18;28.75;;;25.80;;
22284;SDS011;11311;52.192;20.900;2023-08-21T03:42:50;28.02;;;25.25;;
22284;SDS011;11311;52.192;20.900;2023-08-21T03:45:20;29.00;;;25.98;;
22284;SDS011;11311;52.192;20.900;2023-08-21T03:47:49;29.63;;;27.00;;
22284;SDS011;11311;52.192;20.900;2023-08-21T03:50:20;27.23;;;24.75;;
22284;SDS011;11311;52.192;20.900;2023-08-21T03:52:48;28.20;;;25.63;;
22284;SDS011;11311;52.192;20.900;2023-08-21T03:55:19;28.27;;;25.48;;
22284;SDS011;11311;52.192;20.900;2023-08-21T03:57:48;28.20;;;25.83;;
22284;SDS011;11311;52.192;20.900;2023-08-21T04:00:17;30.67;;;26.75;;
22284;SDS011;11311;52.192;20.900;2023-08-21T04:02:46;28.50;;;25.60;;
22284;SDS011;11311;52.192;20.900;2023-08-21T04:05:15;28.67;;;25.98;;
22284;SDS011;11311;52.192;20.900;2023-08-21T04:07:44;29.00;;;26.35;;
22284;SDS011;11311;52.192;20.900;2023-08-21T04:10:13;29.00;;;26.38;;
22284;SDS011;11311;52.192;20.900;2023-08-21T04:12:44;27.00;;;24.33;;
22284;SDS011;11311;52.192;20.900;2023-08-21T04:15:13;29.38;;;26.60;;
22284;SDS011;11311;52.192;20.900;2023-08-21T04:17:42;27.92;;;25.40;;
22284;SDS011;11311;52.192;20.900;2023-08-21T04:20:11;27.25;;;24.95;;
22284;SDS011;11311;52.192;20.900;2023-08-21T04:22:40;27.77;;;25.27;;
22284;SDS011;11311;52.192;20.900;2023-08-21T04:25:09;29.10;;;26.10;;
22284;SDS011;11311;52.192;20.900;2023-08-21T04:27:38;29.02;;;26.08;;
22284;SDS011;11311;52.192;20.900;2023-08-21T04:30:11;27.48;;;24.73;;
22284;SDS011;11311;52.192;20.900;2023-08-21T04:32:40;29.27;;;26.55;;
22284;SDS011;11311;52.192;20.900;2023-08-21T04:35:10;30.13;;;27.05;;
22284;SDS011;11311;52.192;20.900;2023-08-21T04:37:42;29.55;;;26.75;;
22284;SDS011;11311;52.192;20.900;2023-08-21T04:40:13;29.13;;;26.33;;
22284;SDS011;11311;52.192;20.900;2023-08-21T04:42:44;29.20;;;25.88;;
22284;SDS011;11311;52.192;20.900;2023-08-21T04:45:15;27.90;;;24.90;;
22284;SDS011;11311;52.192;20.900;2023-08-21T04:47:44;30.45;;;27.60;;
22284;SDS011;11311;52.192;20.900;2023-08-21T04:50:13;26.95;;;24.08;;
22284;SDS011;11311;52.192;20.900;2023-08-21T04:52:42;31.95;;;24.45;;
22284;SDS011;11311;52.192;20.900;2023-08-21T04:55:11;27.23;;;24.43;;
22284;SDS011;11311;52.192;20.900;2023-08-21T04:57:41;27.23;;;24.83;;
22284;SDS011;11311;52.192;20.900;2023-08-21T05:00:12;26.30;;;23.88;;
22284;SDS011;11311;52.192;20.900;2023-08-21T05:02:44;26.23;;;23.58;;
22284;SDS011;11311;52.192;20.900;2023-08-21T05:05:16;27.77;;;24.13;;
22284;SDS011;11311;52.192;20.900;2023-08-21T05:07:44;25.23;;;23.02;;
22284;SDS011;11311;52.192;20.900;2023-08-21T05:10:13;26.92;;;24.20;;
22284;SDS011;11311;52.192;20.900;2023-08-21T05:12:44;25.52;;;23.23;;
22284;SDS011;11311;52.192;20.900;2023-08-21T05:17:43;29.20;;;26.33;;
22284;SDS011;11311;52.192;20.900;2023-08-21T05:20:14;30.75;;;26.13;;
22284;SDS011;11311;52.192;20.900;2023-08-21T05:22:43;27.13;;;24.47;;
22284;SDS011;11311;52.192;20.900;2023-08-21T05:25:13;29.17;;;26.13;;
22284;SDS011;11311;52.192;20.900;2023-08-21T05:27:42;30.52;;;25.52;;
22284;SDS011;11311;52.192;20.900;2023-08-21T05:30:12;35.40;;;23.55;;
22284;SDS011;11311;52.192;20.900;2023-08-21T05:32:44;27.70;;;24.85;;
22284;SDS011;11311;52.192;20.900;2023-08-21T05:35:13;27.13;;;24.25;;
22284;SDS011;11311;52.192;20.900;2023-08-21T05:37:42;27.38;;;24.90;;
22284;SDS011;11311;52.192;20.900;2023-08-21T05:40:12;26.08;;;23.65;;
22284;SDS011;11311;52.192;20.900;2023-08-21T05:45:11;25.75;;;22.95;;
22284;SDS011;11311;52.192;20.900;2023-08-21T05:47:41;26.65;;;24.15;;
22284;SDS011;11311;52.192;20.900;2023-08-21T05:50:11;26.13;;;23.83;;
22284;SDS011;11311;52.192;20.900;2023-08-21T05:52:41;30.90;;;27.13;;
22284;SDS011;11311;52.192;20.900;2023-08-21T05:55:10;29.10;;;25.75;;
22284;SDS011;11311;52.192;20.900;2023-08-21T05:57:40;29.25;;;26.30;;
22284;SDS011;11311;52.192;20.900;2023-08-21T06:00:09;28.40;;;25.73;;
22284;SDS011;11311;52.192;20.900;2023-08-21T06:02:44;27.52;;;25.02;;
22284;SDS011;11311;52.192;20.900;2023-08-21T06:05:37;26.98;;;24.52;;
22284;SDS011;11311;52.192;20.900;2023-08-21T06:08:07;28.00;;;25.23;;
22284;SDS011;11311;52.192;20.900;2023-08-21T06:10:36;33.10;;;25.52;;
22284;SDS011;11311;52.192;20.900;2023-08-21T06:13:05;25.90;;;23.45;;
22284;SDS011;11311;52.192;20.900;2023-08-21T06:15:35;28.33;;;25.50;;
22284;SDS011;11311;52.192;20.900;2023-08-21T06:18:04;29.10;;;26.80;;
22284;SDS011;11311;52.192;20.900;2023-08-21T06:20:33;26.92;;;24.05;;
22284;SDS011;11311;52.192;20.900;2023-08-21T06:23:04;29.13;;;26.60;;
22284;SDS011;11311;52.192;20.900;2023-08-21T06:25:33;28.40;;;24.55;;
22284;SDS011;11311;52.192;20.900;2023-08-21T06:28:04;32.25;;;26.55;;
22284;SDS011;11311;52.192;20.900;2023-08-21T06:30:33;28.70;;;26.02;;
22284;SDS011;11311;52.192;20.900;2023-08-21T06:33:03;31.52;;;27.83;;
22284;SDS011;11311;52.192;20.900;2023-08-21T06:35:35;28.50;;;26.05;;
22284;SDS011;11311;52.192;20.900;2023-08-21T06:38:06;28.48;;;25.88;;
22284;SDS011;11311;52.192;20.900;2023-08-21T06:40:35;27.98;;;25.20;;
22284;SDS011;11311;52.192;20.900;2023-08-21T06:43:04;28.85;;;26.40;;
22284;SDS011;11311;52.192;20.900;2023-08-21T06:48:04;29.90;;;27.13;;
22284;SDS011;11311;52.192;20.900;2023-08-21T06:50:33;30.05;;;27.02;;
22284;SDS011;11311;52.192;20.900;2023-08-21T06:53:03;29.80;;;26.83;;
22284;SDS011;11311;52.192;20.900;2023-08-21T06:55:33;30.67;;;27.42;;
22284;SDS011;11311;52.192;20.900;2023-08-21T06:58:03;31.25;;;28.27;;
22284;SDS011;11311;52.192;20.900;2023-08-21T07:00:32;29.48;;;26.48;;
22284;SDS011;11311;52.192;20.900;2023-08-21T07:03:01;30.83;;;28.10;;
22284;SDS011;11311;52.192;20.900;2023-08-21T07:05:35;30.52;;;27.63;;
22284;SDS011;11311;52.192;20.900;2023-08-21T07:08:06;29.77;;;26.83;;
22284;SDS011;11311;52.192;20.900;2023-08-21T07:10:39;29.58;;;26.77;;
22284;SDS011;11311;52.192;20.900;2023-08-21T07:13:08;30.00;;;27.08;;
22284;SDS011;11311;52.192;20.900;2023-08-21T07:15:37;29.33;;;26.17;;
22284;SDS011;11311;52.192;20.900;2023-08-21T07:18:07;29.02;;;25.95;;
22284;SDS011;11311;52.192;20.900;2023-08-21T07:20:37;32.05;;;28.70;;
22284;SDS011;11311;52.192;20.900;2023-08-21T07:23:05;29.77;;;27.00;;
22284;SDS011;11311;52.192;20.900;2023-08-21T07:25:34;28.83;;;26.08;;
22284;SDS011;11311;52.192;20.900;2023-08-21T07:28:05;30.40;;;27.63;;
22284;SDS011;11311;52.192;20.900;2023-08-21T07:30:34;32.83;;;29.45;;
22284;SDS011;11311;52.192;20.900;2023-08-21T07:33:05;30.38;;;27.50;;
22284;SDS011;11311;52.192;20.900;2023-08-21T07:35:34;31.90;;;29.02;;
22284;SDS011;11311;52.192;20.900;2023-08-21T07:38:03;32.45;;;28.10;;
22284;SDS011;11311;52.192;20.900;2023-08-21T07:40:31;29.42;;;26.80;;
22284;SDS011;11311;52.192;20.900;2023-08-21T07:43:01;28.60;;;25.95;;
22284;SDS011;11311;52.192;20.900;2023-08-21T07:45:31;28.92;;;25.85;;
22284;SDS011;11311;52.192;20.900;2023-08-21T07:48:00;27.98;;;25.23;;
22284;SDS011;11311;52.192;20.900;2023-08-21T07:53:09;27.27;;;24.40;;
22284;SDS011;11311;52.192;20.900;2023-08-21T07:55:38;25.45;;;22.95;;
22284;SDS011;11311;52.192;20.900;2023-08-21T07:58:07;24.70;;;22.40;;
22284;SDS011;11311;52.192;20.900;2023-08-21T08:00:38;24.33;;;22.05;;
22284;SDS011;11311;52.192;20.900;2023-08-21T08:03:08;26.75;;;23.88;;
22284;SDS011;11311;52.192;20.900;2023-08-21T08:05:38;26.90;;;24.48;;
22284;SDS011;11311;52.192;20.900;2023-08-21T08:08:07;23.83;;;21.63;;
22284;SDS011;11311;52.192;20.900;2023-08-21T08:10:36;21.88;;;20.08;;
22284;SDS011;11311;52.192;20.900;2023-08-21T08:13:06;24.75;;;22.08;;
22284;SDS011;11311;52.192;20.900;2023-08-21T08:15:37;20.67;;;18.77;;
22284;SDS011;11311;52.192;20.900;2023-08-21T08:18:11;23.10;;;20.90;;
22284;SDS011;11311;52.192;20.900;2023-08-21T08:20:40;21.42;;;19.27;;
22284;SDS011;11311;52.192;20.900;2023-08-21T08:23:09;20.60;;;18.90;;
22284;SDS011;11311;52.192;20.900;2023-08-21T08:25:37;19.80;;;17.80;;
22284;SDS011;11311;52.192;20.900;2023-08-21T08:28:07;17.88;;;16.17;;
22284;SDS011;11311;52.192;20.900;2023-08-21T08:30:36;18.48;;;16.40;;
22284;SDS011;11311;52.192;20.900;2023-08-21T08:33:07;19.27;;;17.17;;
22284;SDS011;11311;52.192;20.900;2023-08-21T08:35:36;18.27;;;16.23;;
22284;SDS011;11311;52.192;20.900;2023-08-21T08:38:04;19.70;;;16.35;;
22284;SDS011;11311;52.192;20.900;2023-08-21T08:40:33;18.27;;;16.58;;
22284;SDS011;11311;52.192;20.900;2023-08-21T08:43:03;20.70;;;16.77;;
22284;SDS011;11311;52.192;20.900;2023-08-21T08:45:34;16.30;;;14.68;;
22284;SDS011;11311;52.192;20.900;2023-08-21T08:48:04;16.88;;;15.45;;
22284;SDS011;11311;52.192;20.900;2023-08-21T08:50:35;14.90;;;13.48;;
22284;SDS011;11311;52.192;20.900;2023-08-21T08:53:06;17.90;;;16.08;;
22284;SDS011;11311;52.192;20.900;2023-08-21T08:55:43;17.23;;;15.35;;
22284;SDS011;11311;52.192;20.900;2023-08-21T08:58:12;17.92;;;14.75;;
22284;SDS011;11311;52.192;20.900;2023-08-21T09:00:41;15.98;;;14.38;;
22284;SDS011;11311;52.192;20.900;2023-08-21T09:03:10;16.83;;;13.65;;
22284;SDS011;11311;52.192;20.900;2023-08-21T09:05:41;13.68;;;12.50;;
22284;SDS011;11311;52.192;20.900;2023-08-21T09:08:10;15.70;;;12.68;;
22284;SDS011;11311;52.192;20.900;2023-08-21T09:10:40;12.53;;;11.17;;
22284;SDS011;11311;52.192;20.900;2023-08-21T09:15:42;11.23;;;10.25;;
22284;SDS011;11311;52.192;20.900;2023-08-21T09:18:12;8.90;;;8.10;;
22284;SDS011;11311;52.192;20.900;2023-08-21T09:20:43;10.20;;;9.40;;
22284;SDS011;11311;52.192;20.900;2023-08-21T09:23:15;9.60;;;8.70;;
22284;SDS011;11311;52.192;20.900;2023-08-21T09:25:44;10.82;;;8.02;;
22284;SDS011;11311;52.192;20.900;2023-08-21T09:28:18;9.52;;;8.70;;
22284;SDS011;11311;52.192;20.900;2023-08-21T09:30:49;8.93;;;7.63;;
22284;SDS011;11311;52.192;20.900;2023-08-21T09:33:19;8.07;;;7.30;;
22284;SDS011;11311;52.192;20.900;2023-08-21T09:35:51;8.30;;;7.07;;
22284;SDS011;11311;52.192;20.900;2023-08-21T09:38:21;7.22;;;6.53;;
22284;SDS011;11311;52.192;20.900;2023-08-21T09:40:50;7.07;;;5.88;;
22284;SDS011;11311;52.192;20.900;2023-08-21T09:43:20;7.93;;;6.10;;
22284;SDS011;11311;52.192;20.900;2023-08-21T09:45:50;4.65;;;4.28;;
22284;SDS011;11311;52.192;20.900;2023-08-21T09:48:22;5.93;;;4.78;;
22284;SDS011;11311;52.192;20.900;2023-08-21T09:50:53;5.85;;;4.85;;
22284;SDS011;11311;52.192;20.900;2023-08-21T09:53:23;5.40;;;5.00;;
22284;SDS011;11311;52.192;20.900;2023-08-21T09:55:53;5.43;;;4.93;;
22284;SDS011;11311;52.192;20.900;2023-08-21T09:58:23;6.50;;;5.88;;
22284;SDS011;11311;52.192;20.900;2023-08-21T10:00:52;5.88;;;5.38;;
22284;SDS011;11311;52.192;20.900;2023-08-21T10:03:25;7.97;;;5.65;;
22284;SDS011;11311;52.192;20.900;2023-08-21T10:05:57;7.55;;;5.53;;
22284;SDS011;11311;52.192;20.900;2023-08-21T10:08:27;5.68;;;5.18;;
22284;SDS011;11311;52.192;20.900;2023-08-21T10:10:57;5.07;;;4.68;;
22284;SDS011;11311;52.192;20.900;2023-08-21T10:13:30;5.75;;;5.25;;
22284;SDS011;11311;52.192;20.900;2023-08-21T10:16:00;5.57;;;5.07;;
22284;SDS011;11311;52.192;20.900;2023-08-21T10:18:30;4.53;;;3.95;;
22284;SDS011;11311;52.192;20.900;2023-08-21T10:21:14;7.65;;;4.80;;
22284;SDS011;11311;52.192;20.900;2023-08-21T10:23:45;8.20;;;4.28;;
22284;SDS011;11311;52.192;20.900;2023-08-21T10:26:16;4.70;;;4.30;;
22284;SDS011;11311;52.192;20.900;2023-08-21T10:28:51;5.25;;;4.75;;
22284;SDS011;11311;52.192;20.900;2023-08-21T10:31:31;5.88;;;4.80;;
22284;SDS011;11311;52.192;20.900;2023-08-21T10:34:02;5.20;;;4.80;;
22284;SDS011;11311;52.192;20.900;2023-08-21T10:36:38;5.15;;;4.50;;
22284;SDS011;11311;52.192;20.900;2023-08-21T10:42:05;5.30;;;4.30;;
22284;SDS011;11311;52.192;20.900;2023-08-21T10:44:47;7.70;;;5.47;;
22284;SDS011;11311;52.192;20.900;2023-08-21T10:47:23;4.40;;;4.10;;
22284;SDS011;11311;52.192;20.900;2023-08-21T10:50:00;4.55;;;4.15;;
22284;SDS011;11311;52.192;20.900;2023-08-21T10:52:34;5.55;;;4.55;;
22284;SDS011;11311;52.192;20.900;2023-08-21T10:55:05;4.00;;;3.70;;
22284;SDS011;11311;52.192;20.900;2023-08-21T11:00:04;5.00;;;4.32;;
22284;SDS011;11311;52.192;20.900;2023-08-21T11:02:37;5.05;;;3.83;;
22284;SDS011;11311;52.192;20.900;2023-08-21T11:05:07;7.25;;;3.72;;
22284;SDS011;11311;52.192;20.900;2023-08-21T11:10:09;3.67;;;3.42;;
22284;SDS011;11311;52.192;20.900;2023-08-21T11:12:47;5.53;;;3.55;;
22284;SDS011;11311;52.192;20.900;2023-08-21T11:15:18;21.70;;;4.30;;
22284;SDS011;11311;52.192;20.900;2023-08-21T11:17:50;8.15;;;3.17;;
22284;SDS011;11311;52.192;20.900;2023-08-21T11:20:22;4.30;;;3.90;;
22284;SDS011;11311;52.192;20.900;2023-08-21T11:22:59;3.65;;;3.25;;
22284;SDS011;11311;52.192;20.900;2023-08-21T11:25:29;4.65;;;4.00;;
22284;SDS011;11311;52.192;20.900;2023-08-21T11:27:59;3.80;;;3.47;;
22284;SDS011;11311;52.192;20.900;2023-08-21T11:30:30;3.78;;;3.47;;
22284;SDS011;11311;52.192;20.900;2023-08-21T11:33:05;7.35;;;3.35;;
22284;SDS011;11311;52.192;20.900;2023-08-21T11:35:35;4.35;;;3.42;;
22284;SDS011;11311;52.192;20.900;2023-08-21T11:38:06;3.65;;;3.33;;
22284;SDS011;11311;52.192;20.900;2023-08-21T11:40:36;5.03;;;3.63;;
22284;SDS011;11311;52.192;20.900;2023-08-21T11:43:05;4.10;;;3.58;;
22284;SDS011;11311;52.192;20.900;2023-08-21T11:45:36;5.53;;;3.83;;
22284;SDS011;11311;52.192;20.900;2023-08-21T11:48:23;4.70;;;3.83;;
22284;SDS011;11311;52.192;20.900;2023-08-21T11:50:52;7.70;;;3.50;;
22284;SDS011;11311;52.192;20.900;2023-08-21T11:53:36;5.78;;;3.92;;
22284;SDS011;11311;52.192;20.900;2023-08-21T11:56:08;6.22;;;4.03;;
22284;SDS011;11311;52.192;20.900;2023-08-21T11:58:39;5.88;;;3.22;;
22284;SDS011;11311;52.192;20.900;2023-08-21T12:01:08;5.43;;;3.80;;
22284;SDS011;11311;52.192;20.900;2023-08-21T12:03:37;5.45;;;4.10;;
22284;SDS011;11311;52.192;20.900;2023-08-21T12:06:08;3.45;;;3.10;;
22284;SDS011;11311;52.192;20.900;2023-08-21T12:08:39;4.18;;;3.78;;
22284;SDS011;11311;52.192;20.900;2023-08-21T12:11:08;3.33;;;3.13;;
22284;SDS011;11311;52.192;20.900;2023-08-21T12:13:36;11.63;;;3.07;;
22284;SDS011;11311;52.192;20.900;2023-08-21T12:16:05;4.72;;;3.20;;
22284;SDS011;11311;52.192;20.900;2023-08-21T12:18:34;4.57;;;3.42;;
22284;SDS011;11311;52.192;20.900;2023-08-21T12:21:03;2.73;;;2.53;;
22284;SDS011;11311;52.192;20.900;2023-08-21T12:23:35;2.97;;;2.63;;
22284;SDS011;11311;52.192;20.900;2023-08-21T12:26:05;5.37;;;3.00;;
22284;SDS011;11311;52.192;20.900;2023-08-21T12:28:33;3.63;;;3.28;;
22284;SDS011;11311;52.192;20.900;2023-08-21T12:31:02;5.10;;;2.67;;
22284;SDS011;11311;52.192;20.900;2023-08-21T12:33:31;4.10;;;3.27;;
22284;SDS011;11311;52.192;20.900;2023-08-21T12:36:00;4.80;;;2.88;;
22284;SDS011;11311;52.192;20.900;2023-08-21T12:38:30;4.32;;;2.97;;
22284;SDS011;11311;52.192;20.900;2023-08-21T12:41:00;5.30;;;2.85;;
22284;SDS011;11311;52.192;20.900;2023-08-21T12:43:31;4.53;;;2.83;;
22284;SDS011;11311;52.192;20.900;2023-08-21T12:46:00;7.00;;;2.65;;
22284;SDS011;11311;52.192;20.900;2023-08-21T12:48:30;3.30;;;2.75;;
22284;SDS011;11311;52.192;20.900;2023-08-21T12:50:59;2.72;;;2.40;;
22284;SDS011;11311;52.192;20.900;2023-08-21T12:53:28;2.50;;;2.30;;
22284;SDS011;11311;52.192;20.900;2023-08-21T12:55:57;3.33;;;2.35;;
22284;SDS011;11311;52.192;20.900;2023-08-21T12:58:25;5.45;;;2.08;;
22284;SDS011;11311;52.192;20.900;2023-08-21T13:00:56;5.43;;;2.63;;
22284;SDS011;11311;52.192;20.900;2023-08-21T13:03:25;2.75;;;2.33;;
22284;SDS011;11311;52.192;20.900;2023-08-21T13:05:56;4.40;;;2.30;;
22284;SDS011;11311;52.192;20.900;2023-08-21T13:08:24;5.60;;;2.30;;
22284;SDS011;11311;52.192;20.900;2023-08-21T13:10:53;2.63;;;2.07;;
22284;SDS011;11311;52.192;20.900;2023-08-21T13:13:23;3.53;;;2.30;;
22284;SDS011;11311;52.192;20.900;2023-08-21T13:15:52;3.03;;;2.15;;
22284;SDS011;11311;52.192;20.900;2023-08-21T13:18:23;3.58;;;2.03;;
22284;SDS011;11311;52.192;20.900;2023-08-21T13:20:52;10.40;;;2.20;;
22284;SDS011;11311;52.192;20.900;2023-08-21T13:23:21;3.10;;;2.08;;
22284;SDS011;11311;52.192;20.900;2023-08-21T13:25:50;3.65;;;2.38;;
22284;SDS011;11311;52.192;20.900;2023-08-21T13:28:19;3.92;;;2.20;;
22284;SDS011;11311;52.192;20.900;2023-08-21T13:30:48;5.03;;;1.88;;
22284;SDS011;11311;52.192;20.900;2023-08-21T13:33:17;5.93;;;2.07;;
22284;SDS011;11311;52.192;20.900;2023-08-21T13:35:47;3.65;;;1.98;;
22284;SDS011;11311;52.192;20.900;2023-08-21T13:38:16;2.45;;;1.92;;
22284;SDS011;11311;52.192;20.900;2023-08-21T13:40:45;7.20;;;1.85;;
22284;SDS011;11311;52.192;20.900;2023-08-21T13:43:13;5.83;;;2.30;;
22284;SDS011;11311;52.192;20.900;2023-08-21T13:45:47;6.03;;;2.38;;
22284;SDS011;11311;52.192;20.900;2023-08-21T13:48:16;9.35;;;2.58;;
22284;SDS011;11311;52.192;20.900;2023-08-21T13:50:45;2.65;;;2.10;;
22284;SDS011;11311;52.192;20.900;2023-08-21T13:53:15;4.50;;;2.10;;
22284;SDS011;11311;52.192;20.900;2023-08-21T13:55:44;4.97;;;1.80;;
22284;SDS011;11311;52.192;20.900;2023-08-21T13:58:13;2.22;;;1.50;;
22284;SDS011;11311;52.192;20.900;2023-08-21T14:00:42;3.92;;;1.85;;
22284;SDS011;11311;52.192;20.900;2023-08-21T14:03:11;4.68;;;1.70;;
22284;SDS011;11311;52.192;20.900;2023-08-21T14:05:40;4.45;;;2.30;;
22284;SDS011;11311;52.192;20.900;2023-08-21T14:08:09;10.03;;;1.93;;
22284;SDS011;11311;52.192;20.900;2023-08-21T14:10:39;4.70;;;1.77;;
22284;SDS011;11311;52.192;20.900;2023-08-21T14:13:08;5.07;;;2.13;;
22284;SDS011;11311;52.192;20.900;2023-08-21T14:15:39;2.13;;;1.50;;
22284;SDS011;11311;52.192;20.900;2023-08-21T14:18:09;4.95;;;1.95;;
22284;SDS011;11311;52.192;20.900;2023-08-21T14:20:40;4.45;;;1.92;;
22284;SDS011;11311;52.192;20.900;2023-08-21T14:23:08;3.30;;;1.73;;
22284;SDS011;11311;52.192;20.900;2023-08-21T14:25:41;2.58;;;1.90;;
22284;SDS011;11311;52.192;20.900;2023-08-21T14:28:10;7.75;;;1.77;;
22284;SDS011;11311;52.192;20.900;2023-08-21T14:30:40;9.82;;;2.08;;
22284;SDS011;11311;52.192;20.900;2023-08-21T14:33:10;2.78;;;1.88;;
22284;SDS011;11311;52.192;20.900;2023-08-21T14:35:39;1.50;;;1.40;;
22284;SDS011;11311;52.192;20.900;2023-08-21T14:38:08;6.63;;;1.80;;
22284;SDS011;11311;52.192;20.900;2023-08-21T14:40:40;2.15;;;1.42;;
22284;SDS011;11311;52.192;20.900;2023-08-21T14:43:09;4.75;;;1.65;;
22284;SDS011;11311;52.192;20.900;2023-08-21T14:45:38;3.25;;;1.80;;
22284;SDS011;11311;52.192;20.900;2023-08-21T14:48:07;6.65;;;1.75;;
22284;SDS011;11311;52.192;20.900;2023-08-21T14:50:37;2.95;;;2.08;;
22284;SDS011;11311;52.192;20.900;2023-08-21T14:53:06;2.65;;;1.67;;
22284;SDS011;11311;52.192;20.900;2023-08-21T14:55:35;3.97;;;1.52;;
22284;SDS011;11311;52.192;20.900;2023-08-21T14:58:05;3.90;;;1.52;;